UAE6NM OMDB-VRMM
Flight info
| Callsign | UAE6NM |
|---|---|
| Flight time | N/A |
| Altitude | 41000 |
| Route | ANVIX L223 TARDI N629 GIDAN P570 KITAL L894 ELBET ELBET1B |
| Aircraft | A359/H-SDE2E3GHIJ3J4J5LM1ORWXY/LB1D1 |
Departure
| Time | 2026-04-25 19:24 |
|---|---|
| Airport | Dubai International Airport (OMDB) |
Arrival
| Time | N/A |
|---|---|
| Airport | Velana International Airport (VRMM) |
| Time | Latitude | Longitude | Altitude | Speed | Heading |
|---|---|---|---|---|---|
| 2026-04-25 18:54 | 25.24807 | 55.36436 | 28 ft | 0 kts | 211° |
| 2026-04-25 19:12 | 25.24811 | 55.36438 | 27 ft | 4 kts | 211° |
| 2026-04-25 19:12 | 25.24834 | 55.36454 | 28 ft | 4 kts | 211° |
| 2026-04-25 19:12 | 25.24857 | 55.36467 | 27 ft | 4 kts | 194° |
| 2026-04-25 19:12 | 25.24883 | 55.36470 | 28 ft | 4 kts | 166° |
| 2026-04-25 19:13 | 25.24905 | 55.36457 | 28 ft | 4 kts | 125° |
| 2026-04-25 19:13 | 25.24904 | 55.36458 | 28 ft | 0 kts | 122° |
| 2026-04-25 19:15 | 25.24900 | 55.36474 | 28 ft | 2 kts | 94° |
| 2026-04-25 19:15 | 25.24907 | 55.36489 | 28 ft | 4 kts | 56° |
| 2026-04-25 19:15 | 25.24931 | 55.36497 | 29 ft | 2 kts | 353° |
| 2026-04-25 19:15 | 25.24942 | 55.36485 | 29 ft | 2 kts | 303° |
| 2026-04-25 19:16 | 25.24941 | 55.36457 | 29 ft | 6 kts | 264° |
| 2026-04-25 19:16 | 25.24942 | 55.36407 | 28 ft | 7 kts | 285° |
| 2026-04-25 19:16 | 25.24961 | 55.36358 | 28 ft | 6 kts | 295° |
| 2026-04-25 19:16 | 25.24988 | 55.36305 | 28 ft | 9 kts | 303° |
| 2026-04-25 19:17 | 25.25037 | 55.36292 | 28 ft | 5 kts | 16° |
| 2026-04-25 19:17 | 25.25055 | 55.36308 | 29 ft | 3 kts | 53° |
| 2026-04-25 19:17 | 25.25061 | 55.36323 | 29 ft | 1 kts | 58° |
| 2026-04-25 19:17 | 25.25068 | 55.36328 | 29 ft | 2 kts | 34° |
| 2026-04-25 19:18 | 25.25091 | 55.36318 | 29 ft | 7 kts | 322° |
| 2026-04-25 19:18 | 25.25137 | 55.36242 | 29 ft | 18 kts | 301° |
| 2026-04-25 19:18 | 25.25210 | 55.36101 | 30 ft | 21 kts | 300° |
| 2026-04-25 19:18 | 25.25276 | 55.35983 | 30 ft | 17 kts | 302° |
| 2026-04-25 19:19 | 25.25333 | 55.35883 | 30 ft | 16 kts | 301° |
| 2026-04-25 19:19 | 25.25390 | 55.35778 | 30 ft | 17 kts | 304° |
| 2026-04-25 19:19 | 25.25488 | 55.35755 | 32 ft | 15 kts | 20° |
| 2026-04-25 19:19 | 25.25545 | 55.35792 | 36 ft | 14 kts | 33° |
| 2026-04-25 19:20 | 25.25662 | 55.35867 | 36 ft | 17 kts | 29° |
| 2026-04-25 19:20 | 25.25736 | 55.35974 | 32 ft | 19 kts | 97° |
| 2026-04-25 19:20 | 25.25674 | 55.36114 | 33 ft | 22 kts | 121° |
| 2026-04-25 19:20 | 25.25588 | 55.36267 | 32 ft | 25 kts | 122° |
| 2026-04-25 19:21 | 25.25488 | 55.36440 | 32 ft | 28 kts | 121° |
| 2026-04-25 19:21 | 25.25283 | 55.36814 | 31 ft | 23 kts | 122° |
| 2026-04-25 19:21 | 25.25203 | 55.36953 | 31 ft | 21 kts | 122° |
| 2026-04-25 19:22 | 25.25125 | 55.37092 | 33 ft | 22 kts | 122° |
| 2026-04-25 19:22 | 25.25040 | 55.37244 | 33 ft | 25 kts | 122° |
| 2026-04-25 19:22 | 25.24839 | 55.37601 | 32 ft | 28 kts | 122° |
| 2026-04-25 19:23 | 25.24737 | 55.37782 | 32 ft | 23 kts | 118° |
| 2026-04-25 19:23 | 25.24871 | 55.37895 | 36 ft | 14 kts | 319° |
| 2026-04-25 19:23 | 25.24934 | 55.37797 | 37 ft | 24 kts | 303° |
| 2026-04-25 19:24 | 25.25172 | 55.37369 | 38 ft | 105 kts | 301° |
| 2026-04-25 19:24 | 25.25670 | 55.36464 | 48 ft | 171 kts | 302° |
| 2026-04-25 19:24 | 25.26986 | 55.34117 | 1652 ft | 191 kts | 303° |
| 2026-04-25 19:25 | 25.28531 | 55.31360 | 2952 ft | 221 kts | 303° |
| 2026-04-25 19:25 | 25.29166 | 55.29799 | 3812 ft | 227 kts | 283° |
| 2026-04-25 19:25 | 25.29024 | 55.28043 | 4666 ft | 235 kts | 252° |
| 2026-04-25 19:26 | 25.28360 | 55.26386 | 5612 ft | 236 kts | 246° |
| 2026-04-25 19:26 | 25.27632 | 55.24754 | 6521 ft | 238 kts | 245° |
| 2026-04-25 19:26 | 25.26906 | 55.23107 | 7390 ft | 240 kts | 245° |
| 2026-04-25 19:26 | 25.26180 | 55.21433 | 8288 ft | 243 kts | 245° |
| 2026-04-25 19:27 | 25.25459 | 55.19761 | 9231 ft | 245 kts | 245° |
| 2026-04-25 19:27 | 25.24919 | 55.18631 | 9904 ft | 247 kts | 238° |
| 2026-04-25 19:27 | 25.23218 | 55.16977 | 11034 ft | 256 kts | 204° |
| 2026-04-25 19:27 | 25.21423 | 55.16666 | 11764 ft | 269 kts | 179° |
| 2026-04-25 19:28 | 25.19570 | 55.17096 | 12649 ft | 275 kts | 158° |
| 2026-04-25 19:28 | 25.18015 | 55.18315 | 13699 ft | 277 kts | 134° |
| 2026-04-25 19:28 | 25.16914 | 55.20112 | 14399 ft | 291 kts | 121° |
| 2026-04-25 19:28 | 25.15943 | 55.22161 | 14777 ft | 309 kts | 119° |
| 2026-04-25 19:29 | 25.14950 | 55.24306 | 14966 ft | 317 kts | 120° |
| 2026-04-25 19:29 | 25.13928 | 55.26486 | 15508 ft | 321 kts | 120° |
| 2026-04-25 19:29 | 25.12905 | 55.28657 | 16341 ft | 325 kts | 120° |
| 2026-04-25 19:29 | 25.11836 | 55.30903 | 17197 ft | 328 kts | 121° |
| 2026-04-25 19:30 | 25.10774 | 55.33115 | 18017 ft | 332 kts | 121° |
| 2026-04-25 19:30 | 25.09740 | 55.35408 | 18737 ft | 337 kts | 117° |
| 2026-04-25 19:30 | 25.08773 | 55.37799 | 19360 ft | 345 kts | 117° |
| 2026-04-25 19:30 | 25.07793 | 55.40242 | 19994 ft | 352 kts | 117° |
| 2026-04-25 19:31 | 25.06791 | 55.42728 | 20639 ft | 359 kts | 116° |
| 2026-04-25 19:31 | 25.05788 | 55.45334 | 20946 ft | 377 kts | 115° |
| 2026-04-25 19:31 | 25.04749 | 55.48067 | 21226 ft | 395 kts | 115° |
| 2026-04-25 19:31 | 25.03659 | 55.50924 | 21503 ft | 412 kts | 115° |
| 2026-04-25 19:32 | 25.02519 | 55.53886 | 21881 ft | 425 kts | 115° |
| 2026-04-25 19:32 | 25.01175 | 55.56814 | 22434 ft | 431 kts | 122° |
| 2026-04-25 19:32 | 24.99653 | 55.59685 | 23008 ft | 437 kts | 123° |
| 2026-04-25 19:32 | 24.98615 | 55.61599 | 23403 ft | 442 kts | 123° |
| 2026-04-25 19:33 | 24.96487 | 55.65522 | 24137 ft | 448 kts | 123° |
| 2026-04-25 19:33 | 24.94902 | 55.68446 | 24736 ft | 451 kts | 123° |
| 2026-04-25 19:33 | 24.93165 | 55.71330 | 25347 ft | 453 kts | 128° |
| 2026-04-25 19:33 | 24.91307 | 55.74158 | 25940 ft | 457 kts | 129° |
| 2026-04-25 19:34 | 24.89421 | 55.76995 | 26539 ft | 460 kts | 129° |
| 2026-04-25 19:34 | 24.87521 | 55.79852 | 27120 ft | 464 kts | 128° |
| 2026-04-25 19:34 | 24.85609 | 55.82731 | 27714 ft | 468 kts | 128° |
| 2026-04-25 19:34 | 24.83681 | 55.85635 | 28306 ft | 471 kts | 128° |
| 2026-04-25 19:35 | 24.81722 | 55.88546 | 28898 ft | 474 kts | 129° |
| 2026-04-25 19:35 | 24.79734 | 55.91463 | 29411 ft | 478 kts | 129° |
| 2026-04-25 19:35 | 24.77596 | 55.94290 | 29958 ft | 481 kts | 135° |
| 2026-04-25 19:35 | 24.75258 | 55.96925 | 30440 ft | 482 kts | 139° |
| 2026-04-25 19:36 | 24.72809 | 55.99480 | 30907 ft | 486 kts | 140° |
| 2026-04-25 19:36 | 24.70312 | 56.01999 | 31333 ft | 489 kts | 141° |
| 2026-04-25 19:36 | 24.67792 | 56.04523 | 31763 ft | 491 kts | 141° |
| 2026-04-25 19:36 | 24.65258 | 56.07076 | 32170 ft | 495 kts | 141° |
| 2026-04-25 19:37 | 24.62712 | 56.09654 | 32572 ft | 499 kts | 140° |
| 2026-04-25 19:37 | 24.60156 | 56.12259 | 32980 ft | 503 kts | 140° |
| 2026-04-25 19:37 | 24.57620 | 56.14926 | 33350 ft | 507 kts | 137° |
| 2026-04-25 19:37 | 24.55233 | 56.17808 | 33715 ft | 511 kts | 135° |
| 2026-04-25 19:38 | 24.52906 | 56.20715 | 34003 ft | 514 kts | 134° |
| 2026-04-25 19:38 | 24.50553 | 56.23697 | 34280 ft | 518 kts | 134° |
| 2026-04-25 19:38 | 24.48190 | 56.26712 | 34526 ft | 522 kts | 134° |
| 2026-04-25 19:38 | 24.45812 | 56.29750 | 34773 ft | 525 kts | 134° |
| 2026-04-25 19:39 | 24.43424 | 56.32799 | 35087 ft | 526 kts | 133° |
| 2026-04-25 19:39 | 24.41033 | 56.35850 | 35431 ft | 527 kts | 133° |
| 2026-04-25 19:39 | 24.38633 | 56.38910 | 35673 ft | 530 kts | 133° |
| 2026-04-25 19:39 | 24.36221 | 56.41978 | 35982 ft | 531 kts | 133° |
| 2026-04-25 19:40 | 24.33801 | 56.45049 | 36271 ft | 533 kts | 134° |
| 2026-04-25 19:40 | 24.31399 | 56.48091 | 36548 ft | 535 kts | 134° |
| 2026-04-25 19:40 | 24.28963 | 56.51183 | 36834 ft | 537 kts | 133° |
| 2026-04-25 19:40 | 24.26643 | 56.54403 | 37118 ft | 539 kts | 129° |
| 2026-04-25 19:41 | 24.24447 | 56.57739 | 37417 ft | 541 kts | 127° |
| 2026-04-25 19:41 | 24.22294 | 56.61122 | 37823 ft | 540 kts | 127° |
| 2026-04-25 19:41 | 24.20146 | 56.64500 | 38130 ft | 541 kts | 127° |
| 2026-04-25 19:41 | 24.19415 | 56.65640 | 38197 ft | 541 kts | 127° |
| 2026-04-25 19:42 | 24.15775 | 56.71239 | 38627 ft | 544 kts | 127° |
| 2026-04-25 19:42 | 24.13561 | 56.74593 | 38907 ft | 543 kts | 128° |
| 2026-04-25 19:42 | 24.11342 | 56.77935 | 39257 ft | 541 kts | 128° |
| 2026-04-25 19:42 | 24.09133 | 56.81249 | 39614 ft | 538 kts | 128° |
| 2026-04-25 19:43 | 24.06927 | 56.84554 | 39946 ft | 536 kts | 128° |
| 2026-04-25 19:43 | 24.04735 | 56.87835 | 40313 ft | 532 kts | 128° |
| 2026-04-25 19:43 | 24.02554 | 56.91099 | 40648 ft | 530 kts | 128° |
| 2026-04-25 19:43 | 24.00380 | 56.94350 | 40872 ft | 530 kts | 128° |
| 2026-04-25 19:44 | 23.96045 | 57.00812 | 40913 ft | 529 kts | 128° |
| 2026-04-25 19:44 | 23.91691 | 57.07306 | 40897 ft | 529 kts | 128° |
| 2026-04-25 19:45 | 23.87337 | 57.13798 | 40912 ft | 529 kts | 128° |
| 2026-04-25 19:45 | 23.82985 | 57.20273 | 40899 ft | 528 kts | 128° |
| 2026-04-25 19:46 | 23.78625 | 57.26744 | 40908 ft | 528 kts | 128° |
| 2026-04-25 19:46 | 23.74270 | 57.33210 | 40911 ft | 528 kts | 128° |
| 2026-04-25 19:47 | 23.69886 | 57.39650 | 40910 ft | 528 kts | 129° |
| 2026-04-25 19:47 | 23.65322 | 57.45908 | 40901 ft | 526 kts | 131° |
| 2026-04-25 19:48 | 23.60744 | 57.52084 | 40903 ft | 527 kts | 130° |
| 2026-04-25 19:48 | 23.56153 | 57.58338 | 40923 ft | 527 kts | 130° |
| 2026-04-25 19:49 | 23.53100 | 57.62522 | 40912 ft | 527 kts | 130° |
| 2026-04-25 19:49 | 23.47030 | 57.70846 | 40924 ft | 526 kts | 130° |
| 2026-04-25 19:50 | 23.40201 | 57.80170 | 40941 ft | 525 kts | 130° |
| 2026-04-25 19:51 | 23.35670 | 57.86343 | 40924 ft | 525 kts | 130° |
| 2026-04-25 19:51 | 23.31117 | 57.92539 | 40937 ft | 524 kts | 130° |
| 2026-04-25 19:52 | 23.26556 | 57.98748 | 40921 ft | 524 kts | 130° |
| 2026-04-25 19:52 | 23.22076 | 58.05011 | 40920 ft | 524 kts | 127° |
| 2026-04-25 19:53 | 23.17986 | 58.11563 | 40921 ft | 524 kts | 125° |
| 2026-04-25 19:53 | 23.13960 | 58.18160 | 40917 ft | 523 kts | 125° |
| 2026-04-25 19:54 | 23.09873 | 58.24711 | 40922 ft | 524 kts | 126° |
| 2026-04-25 19:54 | 23.05742 | 58.31240 | 40914 ft | 525 kts | 126° |
| 2026-04-25 19:55 | 23.01165 | 58.37296 | 40906 ft | 520 kts | 140° |
| 2026-04-25 19:55 | 22.95336 | 58.41857 | 40908 ft | 516 kts | 150° |
| 2026-04-25 19:56 | 22.89208 | 58.45943 | 40910 ft | 516 kts | 152° |
| 2026-04-25 19:56 | 22.83046 | 58.49958 | 40904 ft | 517 kts | 152° |
| 2026-04-25 19:57 | 22.76892 | 58.53997 | 40905 ft | 517 kts | 152° |
| 2026-04-25 19:57 | 22.70733 | 58.58059 | 40908 ft | 518 kts | 151° |
| 2026-04-25 19:58 | 22.64589 | 58.62127 | 40905 ft | 518 kts | 151° |
| 2026-04-25 19:58 | 22.58478 | 58.66166 | 40908 ft | 518 kts | 151° |
| 2026-04-25 19:59 | 22.52319 | 58.70223 | 40904 ft | 518 kts | 151° |
| 2026-04-25 19:59 | 22.46154 | 58.74277 | 40907 ft | 518 kts | 151° |
| 2026-04-25 20:00 | 22.39991 | 58.78334 | 40905 ft | 518 kts | 151° |
| 2026-04-25 20:00 | 22.34870 | 58.81703 | 40908 ft | 518 kts | 151° |
| 2026-04-25 20:01 | 22.25627 | 58.87773 | 40906 ft | 518 kts | 151° |
| 2026-04-25 20:01 | 22.18454 | 58.92476 | 40903 ft | 518 kts | 151° |
| 2026-04-25 20:02 | 22.13291 | 58.95857 | 40906 ft | 518 kts | 151° |
| 2026-04-25 20:02 | 22.07167 | 58.99862 | 40895 ft | 518 kts | 151° |
| 2026-04-25 20:03 | 22.01000 | 59.03892 | 40898 ft | 518 kts | 151° |
| 2026-04-25 20:03 | 21.94870 | 59.07893 | 40891 ft | 512 kts | 151° |
| 2026-04-25 20:04 | 21.88789 | 59.11863 | 40890 ft | 510 kts | 151° |
| 2026-04-25 20:04 | 21.82709 | 59.15826 | 40877 ft | 510 kts | 151° |
| 2026-04-25 20:05 | 21.76625 | 59.19784 | 40883 ft | 511 kts | 151° |
| 2026-04-25 20:05 | 21.70542 | 59.23738 | 40886 ft | 511 kts | 151° |
| 2026-04-25 20:06 | 21.64492 | 59.27672 | 40876 ft | 511 kts | 151° |
| 2026-04-25 20:06 | 21.58400 | 59.31630 | 40872 ft | 511 kts | 151° |
| 2026-04-25 20:07 | 21.52311 | 59.35581 | 40872 ft | 511 kts | 151° |
| 2026-04-25 20:07 | 21.46214 | 59.39529 | 40869 ft | 511 kts | 151° |
| 2026-04-25 20:08 | 21.40124 | 59.43472 | 40875 ft | 511 kts | 151° |
| 2026-04-25 20:08 | 21.34038 | 59.47413 | 40877 ft | 511 kts | 151° |
| 2026-04-25 20:09 | 21.27988 | 59.51323 | 40883 ft | 511 kts | 151° |
| 2026-04-25 20:09 | 21.21890 | 59.55264 | 40878 ft | 511 kts | 151° |
| 2026-04-25 20:10 | 21.15790 | 59.59199 | 40881 ft | 511 kts | 151° |
| 2026-04-25 20:10 | 21.09687 | 59.63127 | 40889 ft | 511 kts | 151° |
| 2026-04-25 20:11 | 21.03580 | 59.67051 | 40883 ft | 512 kts | 151° |
| 2026-04-25 20:11 | 20.97476 | 59.70980 | 40891 ft | 512 kts | 151° |
| 2026-04-25 20:12 | 20.91369 | 59.74903 | 40893 ft | 512 kts | 151° |
| 2026-04-25 20:12 | 20.86285 | 59.78160 | 40887 ft | 512 kts | 151° |
| 2026-04-25 20:13 | 20.79184 | 59.82705 | 40893 ft | 512 kts | 151° |
| 2026-04-25 20:13 | 20.73063 | 59.86625 | 40895 ft | 512 kts | 151° |
| 2026-04-25 20:14 | 20.66940 | 59.90540 | 40897 ft | 513 kts | 151° |
| 2026-04-25 20:14 | 20.60855 | 59.94425 | 40895 ft | 513 kts | 150° |
| 2026-04-25 20:15 | 20.54731 | 59.98336 | 40900 ft | 513 kts | 150° |
| 2026-04-25 20:15 | 20.48597 | 60.02249 | 40896 ft | 514 kts | 150° |
| 2026-04-25 20:16 | 20.42458 | 60.06157 | 40895 ft | 514 kts | 150° |
| 2026-04-25 20:16 | 20.36320 | 60.10063 | 40899 ft | 514 kts | 150° |
| 2026-04-25 20:17 | 20.30174 | 60.13973 | 40898 ft | 514 kts | 150° |
| 2026-04-25 20:17 | 20.24028 | 60.17875 | 40907 ft | 514 kts | 150° |
| 2026-04-25 20:18 | 20.17878 | 60.21777 | 40895 ft | 514 kts | 150° |
| 2026-04-25 20:18 | 20.11736 | 60.25674 | 40906 ft | 514 kts | 150° |
| 2026-04-25 20:19 | 20.05684 | 60.29630 | 40899 ft | 515 kts | 145° |
| 2026-04-25 20:19 | 20.00149 | 60.34499 | 40900 ft | 516 kts | 140° |
| 2026-04-25 20:20 | 19.94795 | 60.39577 | 40897 ft | 516 kts | 139° |
| 2026-04-25 20:20 | 19.89463 | 60.44690 | 40900 ft | 516 kts | 139° |
| 2026-04-25 20:21 | 19.84114 | 60.49789 | 40906 ft | 515 kts | 139° |
| 2026-04-25 20:21 | 19.78768 | 60.54867 | 40893 ft | 515 kts | 139° |
| 2026-04-25 20:22 | 19.74347 | 60.59059 | 40900 ft | 515 kts | 139° |
| 2026-04-25 20:22 | 19.68091 | 60.64981 | 40910 ft | 515 kts | 139° |
| 2026-04-25 20:23 | 19.62725 | 60.70053 | 40906 ft | 516 kts | 139° |
| 2026-04-25 20:23 | 19.57371 | 60.75117 | 40897 ft | 516 kts | 139° |
| 2026-04-25 20:24 | 19.52053 | 60.80142 | 40901 ft | 515 kts | 139° |
| 2026-04-25 20:24 | 19.46697 | 60.85196 | 40899 ft | 515 kts | 139° |
| 2026-04-25 20:25 | 19.41347 | 60.90234 | 40894 ft | 515 kts | 139° |
| 2026-04-25 20:25 | 19.35992 | 60.95279 | 40891 ft | 515 kts | 139° |
| 2026-04-25 20:26 | 19.30637 | 61.00318 | 40890 ft | 515 kts | 139° |
| 2026-04-25 20:26 | 19.25274 | 61.05359 | 40900 ft | 515 kts | 139° |
| 2026-04-25 20:27 | 19.19924 | 61.10381 | 40896 ft | 514 kts | 139° |
| 2026-04-25 20:27 | 19.14602 | 61.15378 | 40896 ft | 514 kts | 139° |
| 2026-04-25 20:28 | 19.09247 | 61.20400 | 40896 ft | 514 kts | 139° |
| 2026-04-25 20:28 | 19.03889 | 61.25415 | 40892 ft | 514 kts | 139° |
| 2026-04-25 20:29 | 18.98529 | 61.30432 | 40897 ft | 514 kts | 139° |
| 2026-04-25 20:29 | 18.93170 | 61.35445 | 40893 ft | 514 kts | 139° |
| 2026-04-25 20:30 | 18.87842 | 61.40419 | 40894 ft | 513 kts | 139° |
| 2026-04-25 20:30 | 18.82481 | 61.45422 | 40897 ft | 513 kts | 139° |
| 2026-04-25 20:31 | 18.77125 | 61.50419 | 40892 ft | 513 kts | 139° |
| 2026-04-25 20:31 | 18.71775 | 61.55405 | 40890 ft | 514 kts | 139° |
| 2026-04-25 20:32 | 18.67320 | 61.59552 | 40891 ft | 514 kts | 139° |
| 2026-04-25 20:32 | 18.61051 | 61.65380 | 40890 ft | 514 kts | 139° |
| 2026-04-25 20:33 | 18.55729 | 61.70328 | 40891 ft | 514 kts | 139° |
| 2026-04-25 20:33 | 18.52139 | 61.73662 | 40889 ft | 514 kts | 139° |
| 2026-04-25 20:34 | 18.44983 | 61.80297 | 40899 ft | 514 kts | 139° |
| 2026-04-25 20:34 | 18.39613 | 61.85273 | 40891 ft | 514 kts | 139° |
| 2026-04-25 20:35 | 18.34238 | 61.90254 | 40892 ft | 514 kts | 139° |
| 2026-04-25 20:35 | 18.28871 | 61.95223 | 40884 ft | 513 kts | 139° |
| 2026-04-25 20:36 | 18.23543 | 62.00145 | 40883 ft | 513 kts | 139° |
| 2026-04-25 20:36 | 18.18171 | 62.05103 | 40878 ft | 513 kts | 139° |
| 2026-04-25 20:37 | 18.12804 | 62.10059 | 40879 ft | 513 kts | 139° |
| 2026-04-25 20:37 | 18.07430 | 62.15015 | 40881 ft | 513 kts | 139° |
| 2026-04-25 20:38 | 18.02062 | 62.19961 | 40875 ft | 513 kts | 139° |
| 2026-04-25 20:38 | 17.96690 | 62.24902 | 40873 ft | 513 kts | 139° |
| 2026-04-25 20:39 | 17.91314 | 62.29847 | 40888 ft | 512 kts | 139° |
| 2026-04-25 20:39 | 17.87764 | 62.33112 | 40887 ft | 512 kts | 139° |
| 2026-04-25 20:40 | 17.80596 | 62.39697 | 40889 ft | 512 kts | 139° |
| 2026-04-25 20:40 | 17.75261 | 62.44587 | 40886 ft | 512 kts | 139° |
| 2026-04-25 20:41 | 17.69893 | 62.49509 | 40882 ft | 512 kts | 139° |
| 2026-04-25 20:41 | 17.64531 | 62.54422 | 40866 ft | 511 kts | 139° |
| 2026-04-25 20:42 | 17.59168 | 62.59328 | 40882 ft | 511 kts | 139° |
| 2026-04-25 20:42 | 17.53810 | 62.64229 | 40884 ft | 511 kts | 139° |
| 2026-04-25 20:43 | 17.48454 | 62.69125 | 40883 ft | 511 kts | 139° |
| 2026-04-25 20:43 | 17.46057 | 62.71314 | 40886 ft | 500 kts | 139° |